Private Wetterstation Sandau
Wetterdaten: Freitag, 19.10.2012
Datum Zeit Temp. A. Feuchte A. Luftdruck Regen Wind Richtung Richtung Taupunkt Windchill
19.10.2012 00:01 11,8 C 80 % 1014,9 hPa 0,0 l/m 4,0 km/h (1 Bft) S 180 8,5 C 11,8 C
19.10.2012 00:06 11,8 C 80 % 1014,6 hPa 0,0 l/m 4,0 km/h (1 Bft) S-SW 202 8,5 C 11,8 C
19.10.2012 00:11 11,8 C 80 % 1014,8 hPa 0,0 l/m 0,0 km/h (0 Bft) SO 135 8,5 C 11,8 C
19.10.2012 00:16 11,6 C 80 % 1014,9 hPa 0,0 l/m 3,6 km/h (1 Bft) S-SO 157 8,3 C 11,6 C
19.10.2012 00:21 11,6 C 80 % 1014,9 hPa 0,0 l/m 3,6 km/h (1 Bft) S-SO 157 8,3 C 11,6 C
19.10.2012 00:26 11,6 C 81 % 1014,9 hPa 0,0 l/m 4,0 km/h (1 Bft) S 180 8,5 C 11,6 C
19.10.2012 00:31 11,5 C 81 % 1014,9 hPa 0,0 l/m 2,5 km/h (1 Bft) SO 135 8,4 C 11,5 C
19.10.2012 00:36 11,5 C 81 % 1014,9 hPa 0,0 l/m 6,5 km/h (2 Bft) SO 135 8,4 C 11,5 C
19.10.2012 00:41 11,6 C 81 % 1014,9 hPa 0,0 l/m 8,3 km/h (2 Bft) SO 135 8,5 C 11,6 C
19.10.2012 00:46 11,5 C 81 % 1015,0 hPa 0,0 l/m 2,5 km/h (1 Bft) S-SO 157 8,4 C 11,5 C
19.10.2012 00:51 11,4 C 81 % 1014,9 hPa 0,0 l/m 2,9 km/h (1 Bft) SO 135 8,3 C 11,4 C
19.10.2012 00:56 11,3 C 81 % 1014,9 hPa 0,0 l/m 3,2 km/h (1 Bft) S-SO 157 8,2 C 11,3 C
19.10.2012 01:01 11,3 C 81 % 1015,0 hPa 0,0 l/m 0,0 km/h (0 Bft) SO 135 8,2 C 11,3 C
19.10.2012 01:06 11,1 C 81 % 1015,0 hPa 0,0 l/m 3,2 km/h (1 Bft) S 180 8,0 C 11,1 C
19.10.2012 01:11 11,0 C 81 % 1015,0 hPa 0,0 l/m 2,5 km/h (1 Bft) S-SO 157 7,9 C 11,0 C
19.10.2012 01:16 10,9 C 82 % 1015,0 hPa 0,0 l/m 0,0 km/h (0 Bft) SO 135 7,9 C 10,9 C
19.10.2012 01:21 10,8 C 82 % 1015,1 hPa 0,0 l/m 0,0 km/h (0 Bft) O-SO 112 7,9 C 10,8 C
19.10.2012 01:26 10,6 C 82 % 1015,1 hPa 0,0 l/m 1,1 km/h (1 Bft) O-SO 112 7,7 C 10,6 C
19.10.2012 01:31 10,5 C 82 % 1015,1 hPa 0,0 l/m 0,0 km/h (0 Bft) O-SO 112 7,6 C 10,5 C
19.10.2012 01:36 10,4 C 82 % 1015,3 hPa 0,0 l/m 0,0 km/h (0 Bft) O-SO 112 7,5 C 10,4 C
19.10.2012 01:41 10,3 C 82 % 1015,2 hPa 0,0 l/m 0,0 km/h (0 Bft) O-SO 112 7,4 C 10,3 C
19.10.2012 01:46 10,1 C 82 % 1015,1 hPa 0,0 l/m 2,2 km/h (1 Bft) SO 135 7,2 C 10,1 C
19.10.2012 01:51 10,0 C 83 % 1014,8 hPa 0,0 l/m 2,2 km/h (1 Bft) SO 135 7,2 C 10,0 C
19.10.2012 01:56 9,9 C 84 % 1014,9 hPa 0,0 l/m 2,2 km/h (1 Bft) O-SO 112 7,3 C 9,9 C
19.10.2012 02:01 9,9 C 84 % 1015,0 hPa 0,0 l/m 0,0 km/h (0 Bft) SO 135 7,3 C 9,9 C
19.10.2012 02:06 9,9 C 85 % 1014,9 hPa 0,0 l/m 2,5 km/h (1 Bft) O-SO 112 7,5 C 9,9 C
19.10.2012 02:11 9,8 C 85 % 1014,9 hPa 0,0 l/m 0,0 km/h (0 Bft) SO 135 7,4 C 9,8 C
19.10.2012 02:16 9,8 C 85 % 1014,9 hPa 0,0 l/m 0,0 km/h (0 Bft) O-SO 112 7,4 C 9,8 C
19.10.2012 02:21 9,8 C 85 % 1014,9 hPa 0,0 l/m 1,4 km/h (1 Bft) O-SO 112 7,4 C 9,8 C
19.10.2012 02:26 9,7 C 85 % 1014,8 hPa 0,0 l/m 2,5 km/h (1 Bft) O-SO 112 7,3 C 9,7 C
19.10.2012 02:31 9,6 C 85 % 1015,0 hPa 0,0 l/m 3,2 km/h (1 Bft) SO 135 7,2 C 9,6 C
19.10.2012 02:36 9,6 C 85 % 1015,0 hPa 0,0 l/m 1,8 km/h (1 Bft) O-SO 112 7,2 C 9,6 C
19.10.2012 02:41 9,6 C 85 % 1014,9 hPa 0,0 l/m 1,4 km/h (1 Bft) SO 135 7,2 C 9,6 C
19.10.2012 02:46 9,6 C 85 % 1015,0 hPa 0,0 l/m 0,0 km/h (0 Bft) O-SO 112 7,2 C 9,6 C
19.10.2012 02:51 9,6 C 86 % 1015,0 hPa 0,0 l/m 0,0 km/h (0 Bft) O-SO 112 7,4 C 9,6 C
19.10.2012 02:56 9,5 C 86 % 1014,9 hPa 0,0 l/m 1,4 km/h (1 Bft) SO 135 7,3 C 9,5 C
19.10.2012 03:01 9,4 C 86 % 1015,0 hPa 0,0 l/m 0,0 km/h (0 Bft) O-SO 112 7,2 C 9,4 C
19.10.2012 03:06 9,3 C 86 % 1014,9 hPa 0,0 l/m 0,0 km/h (0 Bft) SO 135 7,1 C 9,3 C
19.10.2012 03:11 9,3 C 86 % 1014,9 hPa 0,0 l/m 0,0 km/h (0 Bft) SO 135 7,1 C 9,3 C
19.10.2012 03:16 9,2 C 86 % 1014,9 hPa 0,0 l/m 1,4 km/h (1 Bft) SO 135 7,0 C 9,2 C
19.10.2012 03:21 9,1 C 86 % 1015,1 hPa 0,0 l/m 0,0 km/h (0 Bft) SO 135 6,9 C 9,1 C
19.10.2012 03:26 9,1 C 86 % 1014,9 hPa 0,0 l/m 0,0 km/h (0 Bft) SO 135 6,9 C 9,1 C
19.10.2012 03:31 9,0 C 86 % 1015,0 hPa 0,0 l/m 0,0 km/h (0 Bft) O-SO 112 6,8 C 9,0 C
19.10.2012 03:36 9,0 C 87 % 1014,8 hPa 0,0 l/m 0,0 km/h (0 Bft) O-SO 112 7,0 C 9,0 C
19.10.2012 03:41 8,9 C 87 % 1014,9 hPa 0,0 l/m 0,0 km/h (0 Bft) SO 135 6,9 C 8,9 C
19.10.2012 03:46 8,9 C 87 % 1014,8 hPa 0,0 l/m 0,0 km/h (0 Bft) SO 135 6,9 C 8,9 C
19.10.2012 03:51 8,9 C 87 % 1014,7 hPa 0,0 l/m 2,5 km/h (1 Bft) O-SO 112 6,9 C 8,9 C
19.10.2012 03:56 8,9 C 87 % 1014,7 hPa 0,0 l/m 2,2 km/h (1 Bft) O-SO 112 6,9 C 8,9 C
19.10.2012 04:01 8,8 C 87 % 1014,7 hPa 0,0 l/m 2,5 km/h (1 Bft) SO 135 6,8 C 8,8 C
19.10.2012 04:06 8,8 C 87 % 1014,7 hPa 0,0 l/m 0,0 km/h (0 Bft) O-SO 112 6,8 C 8,8 C
19.10.2012 04:11 8,6 C 87 % 1014,7 hPa 0,0 l/m 3,2 km/h (1 Bft) O-SO 112 6,6 C 8,6 C
19.10.2012 04:16 8,5 C 88 % 1014,7 hPa 0,0 l/m 2,2 km/h (1 Bft) S-SO 157 6,6 C 8,5 C
19.10.2012 04:21 8,5 C 88 % 1014,7 hPa 0,0 l/m 1,4 km/h (1 Bft) SO 135 6,6 C 8,5 C
19.10.2012 04:26 8,5 C 88 % 1014,7 hPa 0,0 l/m 2,5 km/h (1 Bft) SO 135 6,6 C 8,5 C
19.10.2012 04:31 8,5 C 88 % 1014,7 hPa 0,0 l/m 0,0 km/h (0 Bft) SO 135 6,6 C 8,5 C
19.10.2012 04:36 8,5 C 88 % 1014,7 hPa 0,0 l/m 2,9 km/h (1 Bft) SO 135 6,6 C 8,5 C
19.10.2012 04:41 8,4 C 88 % 1014,7 hPa 0,0 l/m 2,2 km/h (1 Bft) S-SO 157 6,5 C 8,4 C
19.10.2012 04:46 8,4 C 88 % 1014,9 hPa 0,0 l/m 3,2 km/h (1 Bft) S-SO 157 6,5 C 8,4 C
19.10.2012 04:51 8,4 C 88 % 1014,8 hPa 0,0 l/m 1,8 km/h (1 Bft) SO 135 6,5 C 8,4 C
19.10.2012 04:56 8,4 C 88 % 1014,9 hPa 0,0 l/m 1,8 km/h (1 Bft) S-SO 157 6,5 C 8,4 C
19.10.2012 05:01 8,3 C 88 % 1014,9 hPa 0,0 l/m 0,0 km/h (0 Bft) SO 135 6,4 C 8,3 C
19.10.2012 05:06 8,3 C 88 % 1015,2 hPa 0,0 l/m 0,0 km/h (0 Bft) S 180 6,4 C 8,3 C
19.10.2012 05:11 8,3 C 88 % 1015,0 hPa 0,0 l/m 0,0 km/h (0 Bft) S 180 6,4 C 8,3 C
19.10.2012 05:16 8,2 C 88 % 1015,1 hPa 0,0 l/m 0,0 km/h (0 Bft) S-SO 157 6,3 C 8,2 C
19.10.2012 05:21 8,2 C 88 % 1015,2 hPa 0,0 l/m 0,0 km/h (0 Bft) S-SO 157 6,3 C 8,2 C
19.10.2012 05:26 8,2 C 88 % 1015,1 hPa 0,0 l/m 0,0 km/h (0 Bft) S-SO 157 6,3 C 8,2 C
19.10.2012 05:31 8,3 C 89 % 1015,0 hPa 0,0 l/m 0,0 km/h (0 Bft) S-SO 157 6,6 C 8,3 C
19.10.2012 05:36 8,3 C 89 % 1014,9 hPa 0,0 l/m 2,2 km/h (1 Bft) S-SO 157 6,6 C 8,3 C
19.10.2012 05:41 8,4 C 89 % 1014,9 hPa 0,0 l/m 4,7 km/h (1 Bft) S-SO 157 6,7 C 8,0 C
19.10.2012 05:46 8,5 C 89 % 1014,8 hPa 0,0 l/m 5,0 km/h (1 Bft) SO 135 6,8 C 8,1 C
19.10.2012 05:51 8,6 C 89 % 1014,7 hPa 0,0 l/m 2,5 km/h (1 Bft) SO 135 6,9 C 8,6 C
19.10.2012 05:56 8,8 C 89 % 1014,6 hPa 0,0 l/m 6,1 km/h (2 Bft) SO 135 7,1 C 8,1 C
19.10.2012 06:01 8,9 C 89 % 1014,6 hPa 0,0 l/m 4,0 km/h (1 Bft) S-SO 157 7,2 C 8,9 C
19.10.2012 06:06 8,9 C 89 % 1014,7 hPa 0,0 l/m 2,5 km/h (1 Bft) SO 135 7,2 C 8,9 C
19.10.2012 06:11 9,0 C 89 % 1014,6 hPa 0,0 l/m 3,2 km/h (1 Bft) SO 135 7,3 C 9,0 C
19.10.2012 06:16 9,0 C 89 % 1014,7 hPa 0,0 l/m 3,2 km/h (1 Bft) SO 135 7,3 C 9,0 C
19.10.2012 06:21 9,1 C 88 % 1014,8 hPa 0,0 l/m 4,0 km/h (1 Bft) SO 135 7,2 C 9,1 C
19.10.2012 06:26 9,1 C 88 % 1014,5 hPa 0,0 l/m 4,3 km/h (1 Bft) O-SO 112 7,2 C 9,1 C
19.10.2012 06:31 9,1 C 88 % 1014,7 hPa 0,0 l/m 1,4 km/h (1 Bft) O-SO 112 7,2 C 9,1 C
19.10.2012 06:36 9,1 C 88 % 1014,6 hPa 0,0 l/m 1,4 km/h (1 Bft) O-SO 112 7,2 C 9,1 C
19.10.2012 06:41 9,1 C 88 % 1014,5 hPa 0,0 l/m 4,0 km/h (1 Bft) O-SO 112 7,2 C 9,1 C
19.10.2012 06:46 8,9 C 88 % 1014,4 hPa 0,0 l/m 2,5 km/h (1 Bft) SO 135 7,0 C 8,9 C
19.10.2012 06:51 8,9 C 88 % 1014,6 hPa 0,0 l/m 0,0 km/h (0 Bft) SO 135 7,0 C 8,9 C
19.10.2012 06:56 8,8 C 87 % 1014,6 hPa 0,0 l/m 2,5 km/h (1 Bft) SO 135 6,8 C 8,8 C
19.10.2012 07:01 8,7 C 88 % 1014,6 hPa 0,0 l/m 4,3 km/h (1 Bft) SO 135 6,8 C 8,7 C
19.10.2012 07:06 8,6 C 88 % 1014,6 hPa 0,0 l/m 5,8 km/h (2 Bft) SO 135 6,7 C 7,9 C
19.10.2012 07:11 8,5 C 88 % 1014,6 hPa 0,0 l/m 2,2 km/h (1 Bft) SO 135 6,6 C 8,5 C
19.10.2012 07:16 8,5 C 88 % 1014,7 hPa 0,0 l/m 2,5 km/h (1 Bft) O-SO 112 6,6 C 8,5 C
19.10.2012 07:21 8,4 C 88 % 1014,7 hPa 0,0 l/m 4,3 km/h (1 Bft) SO 135 6,5 C 8,4 C
19.10.2012 07:26 8,4 C 89 % 1014,4 hPa 0,0 l/m 3,2 km/h (1 Bft) O-SO 112 6,7 C 8,4 C
19.10.2012 07:31 8,4 C 89 % 1014,6 hPa 0,0 l/m 2,9 km/h (1 Bft) O-SO 112 6,7 C 8,4 C
19.10.2012 07:36 8,4 C 89 % 1014,6 hPa 0,0 l/m 6,5 km/h (2 Bft) O-SO 112 6,7 C 7,5 C
19.10.2012 07:41 8,4 C 89 % 1014,6 hPa 0,0 l/m 4,3 km/h (1 Bft) O-SO 112 6,7 C 8,4 C
19.10.2012 07:46 8,4 C 89 % 1014,7 hPa 0,0 l/m 3,6 km/h (1 Bft) O-SO 112 6,7 C 8,4 C
19.10.2012 07:51 8,4 C 89 % 1014,8 hPa 0,0 l/m 0,0 km/h (0 Bft) SO 135 6,7 C 8,4 C
19.10.2012 07:56 8,3 C 89 % 1014,9 hPa 0,0 l/m 0,0 km/h (0 Bft) SO 135 6,6 C 8,3 C
19.10.2012 08:01 8,4 C 89 % 1014,9 hPa 0,0 l/m 3,6 km/h (1 Bft) SO 135 6,7 C 8,4 C
19.10.2012 08:06 8,3 C 89 % 1015,0 hPa 0,0 l/m 0,0 km/h (0 Bft) O-SO 112 6,6 C 8,3 C
19.10.2012 08:11 8,4 C 89 % 1015,0 hPa 0,0 l/m 0,0 km/h (0 Bft) O-SO 112 6,7 C 8,4 C
19.10.2012 08:16 8,4 C 89 % 1014,8 hPa 0,0 l/m 5,4 km/h (1 Bft) O-SO 112 6,7 C 7,8 C
19.10.2012 08:21 8,4 C 89 % 1015,0 hPa 0,0 l/m 2,2 km/h (1 Bft) O-SO 112 6,7 C 8,4 C
19.10.2012 08:26 8,4 C 89 % 1015,0 hPa 0,0 l/m 6,5 km/h (2 Bft) SO 135 6,7 C 7,5 C
19.10.2012 08:31 8,5 C 89 % 1015,2 hPa 0,0 l/m 2,2 km/h (1 Bft) O-SO 112 6,8 C 8,5 C
19.10.2012 08:36 8,6 C 89 % 1015,1 hPa 0,0 l/m 3,6 km/h (1 Bft) O-SO 112 6,9 C 8,6 C
19.10.2012 08:41 8,8 C 89 % 1015,1 hPa 0,0 l/m 6,1 km/h (2 Bft) O-SO 112 7,1 C 8,1 C
19.10.2012 08:46 8,8 C 89 % 1015,2 hPa 0,0 l/m 2,2 km/h (1 Bft) O-SO 112 7,1 C 8,8 C
19.10.2012 08:51 8,9 C 89 % 1015,3 hPa 0,0 l/m 2,9 km/h (1 Bft) O-SO 112 7,2 C 8,9 C
19.10.2012 08:56 9,1 C 89 % 1015,2 hPa 0,0 l/m 1,4 km/h (1 Bft) SO 135 7,4 C 9,1 C
19.10.2012 09:01 9,2 C 89 % 1015,2 hPa 0,0 l/m 4,3 km/h (1 Bft) S-SO 157 7,5 C 9,2 C
19.10.2012 09:06 9,3 C 89 % 1015,4 hPa 0,0 l/m 1,4 km/h (1 Bft) SO 135 7,6 C 9,3 C
19.10.2012 09:11 9,5 C 89 % 1015,6 hPa 0,0 l/m 8,3 km/h (2 Bft) S-SO 157 7,8 C 8,4 C
19.10.2012 09:16 9,6 C 89 % 1015,4 hPa 0,0 l/m 6,1 km/h (2 Bft) SO 135 7,9 C 9,0 C
19.10.2012 09:21 9,8 C 88 % 1015,6 hPa 0,0 l/m 9,4 km/h (2 Bft) SO 135 7,9 C 8,5 C
19.10.2012 09:26 9,9 C 88 % 1015,4 hPa 0,0 l/m 3,2 km/h (1 Bft) O-SO 112 8,0 C 9,9 C
19.10.2012 09:31 10,1 C 88 % 1015,5 hPa 0,0 l/m 6,1 km/h (2 Bft) O-SO 112 8,2 C 10,1 C
19.10.2012 09:36 10,2 C 88 % 1015,3 hPa 0,0 l/m 2,9 km/h (1 Bft) O-SO 112 8,3 C 10,2 C
19.10.2012 09:41 10,4 C 88 % 1015,3 hPa 0,0 l/m 0,0 km/h (0 Bft) SO 135 8,5 C 10,4 C
19.10.2012 09:46 10,5 C 87 % 1015,4 hPa 0,0 l/m 2,2 km/h (1 Bft) SO 135 8,4 C 10,5 C
19.10.2012 09:51 10,8 C 87 % 1015,6 hPa 0,0 l/m 6,1 km/h (2 Bft) SO 135 8,7 C 10,8 C
19.10.2012 09:56 10,9 C 87 % 1015,5 hPa 0,0 l/m 4,0 km/h (1 Bft) SO 135 8,8 C 10,9 C
19.10.2012 10:01 11,1 C 86 % 1015,6 hPa 0,0 l/m 5,0 km/h (1 Bft) SO 135 8,8 C 11,1 C
19.10.2012 10:06 11,3 C 86 % 1015,6 hPa 0,0 l/m 3,6 km/h (1 Bft) SO 135 9,0 C 11,3 C
19.10.2012 10:11 11,4 C 86 % 1015,6 hPa 0,0 l/m 2,5 km/h (1 Bft) O-SO 112 9,1 C 11,4 C
19.10.2012 10:16 11,6 C 86 % 1015,7 hPa 0,0 l/m 3,6 km/h (1 Bft) SO 135 9,3 C 11,6 C
19.10.2012 10:21 11,8 C 86 % 1015,7 hPa 0,0 l/m 1,4 km/h (1 Bft) S-SO 157 9,5 C 11,8 C
19.10.2012 10:26 11,9 C 86 % 1015,7 hPa 0,0 l/m 1,1 km/h (1 Bft) S-SO 157 9,6 C 11,9 C
19.10.2012 10:31 12,1 C 85 % 1015,7 hPa 0,0 l/m 2,5 km/h (1 Bft) S-SO 157 9,7 C 12,1 C
19.10.2012 10:36 12,4 C 85 % 1015,6 hPa 0,0 l/m 4,7 km/h (1 Bft) S-SO 157 9,9 C 12,4 C
19.10.2012 10:41 12,7 C 85 % 1015,6 hPa 0,0 l/m 1,8 km/h (1 Bft) S-SO 157 10,2 C 12,7 C
19.10.2012 10:46 12,9 C 84 % 1015,4 hPa 0,0 l/m 2,5 km/h (1 Bft) O-SO 112 10,3 C 12,9 C
19.10.2012 10:51 13,2 C 84 % 1015,4 hPa 0,0 l/m 7,2 km/h (2 Bft) SO 135 10,6 C 13,2 C
19.10.2012 10:56 13,4 C 83 % 1015,5 hPa 0,0 l/m 0,0 km/h (0 Bft) SO 135 10,6 C 13,4 C
19.10.2012 11:01 13,7 C 82 % 1015,3 hPa 0,0 l/m 3,2 km/h (1 Bft) SO 135 10,7 C 13,7 C
19.10.2012 11:06 13,9 C 82 % 1015,3 hPa 0,0 l/m 1,8 km/h (1 Bft) S-SO 157 10,9 C 13,9 C
19.10.2012 11:11 14,3 C 81 % 1015,3 hPa 0,0 l/m 0,0 km/h (0 Bft) SO 135 11,1 C 14,3 C
19.10.2012 11:16 14,5 C 79 % 1015,3 hPa 0,0 l/m 7,6 km/h (2 Bft) SO 135 10,9 C 14,5 C
19.10.2012 11:21 14,8 C 79 % 1015,2 hPa 0,0 l/m 4,7 km/h (1 Bft) SO 135 11,2 C 14,8 C
19.10.2012 11:26 14,9 C 77 % 1015,2 hPa 0,0 l/m 4,0 km/h (1 Bft) SO 135 10,9 C 14,9 C
19.10.2012 11:31 15,2 C 77 % 1015,3 hPa 0,0 l/m 9,0 km/h (2 Bft) O-SO 112 11,2 C 15,2 C
19.10.2012 11:36 15,3 C 76 % 1015,1 hPa 0,0 l/m 6,1 km/h (2 Bft) SO 135 11,1 C 15,3 C
19.10.2012 11:41 15,5 C 76 % 1015,1 hPa 0,0 l/m 4,0 km/h (1 Bft) SO 135 11,3 C 15,5 C
19.10.2012 11:46 15,6 C 76 % 1015,2 hPa 0,0 l/m 7,2 km/h (2 Bft) O 90 11,4 C 15,6 C
19.10.2012 11:51 15,9 C 75 % 1015,0 hPa 0,0 l/m 4,0 km/h (1 Bft) O-SO 112 11,5 C 15,9 C
19.10.2012 11:56 16,1 C 74 % 1015,1 hPa 0,0 l/m 3,2 km/h (1 Bft) SO 135 11,5 C 16,1 C
19.10.2012 12:01 16,4 C 75 % 1015,0 hPa 0,0 l/m 6,1 km/h (2 Bft) SO 135 12,0 C 16,4 C
19.10.2012 12:06 16,5 C 74 % 1015,0 hPa 0,0 l/m 4,0 km/h (1 Bft) SO 135 11,8 C 16,5 C
19.10.2012 12:11 16,6 C 73 % 1015,2 hPa 0,0 l/m 2,9 km/h (1 Bft) SO 135 11,7 C 16,6 C
19.10.2012 12:16 16,6 C 72 % 1015,2 hPa 0,0 l/m 5,4 km/h (1 Bft) SO 135 11,5 C 16,6 C
19.10.2012 12:21 16,8 C 72 % 1015,1 hPa 0,0 l/m 4,0 km/h (1 Bft) SO 135 11,7 C 16,8 C
19.10.2012 12:26 16,8 C 72 % 1015,1 hPa 0,0 l/m 4,3 km/h (1 Bft) S-SO 157 11,7 C 16,8 C
19.10.2012 12:31 16,9 C 72 % 1015,1 hPa 0,0 l/m 6,1 km/h (2 Bft) SO 135 11,8 C 16,9 C
19.10.2012 12:36 17,1 C 72 % 1015,0 hPa 0,0 l/m 6,8 km/h (2 Bft) SO 135 12,0 C 17,1 C
19.10.2012 12:41 17,2 C 72 % 1015,0 hPa 0,0 l/m 4,7 km/h (1 Bft) S 180 12,1 C 17,2 C
19.10.2012 12:46 17,4 C 71 % 1014,9 hPa 0,0 l/m 6,1 km/h (2 Bft) SO 135 12,1 C 17,4 C
19.10.2012 12:51 17,6 C 71 % 1014,8 hPa 0,0 l/m 10,1 km/h (2 Bft) S-SO 157 12,3 C 17,6 C
19.10.2012 12:56 17,8 C 70 % 1014,9 hPa 0,0 l/m 2,2 km/h (1 Bft) S-SO 157 12,3 C 17,8 C
19.10.2012 13:01 17,9 C 69 % 1014,9 hPa 0,0 l/m 15,8 km/h (3 Bft) O 90 12,1 C 17,9 C
19.10.2012 13:06 17,9 C 69 % 1014,8 hPa 0,0 l/m 3,6 km/h (1 Bft) SO 135 12,1 C 17,9 C
19.10.2012 13:11 18,2 C 69 % 1014,9 hPa 0,0 l/m 2,5 km/h (1 Bft) O-SO 112 12,4 C 18,2 C
19.10.2012 13:16 18,3 C 69 % 1014,8 hPa 0,0 l/m 4,7 km/h (1 Bft) O 90 12,5 C 18,3 C
19.10.2012 13:21 18,5 C 69 % 1014,9 hPa 0,0 l/m 1,1 km/h (1 Bft) O-SO 112 12,7 C 18,5 C
19.10.2012 13:26 18,8 C 69 % 1014,6 hPa 0,0 l/m 5,8 km/h (2 Bft) O-NO 67 13,0 C 18,8 C
19.10.2012 13:31 19,0 C 67 % 1014,8 hPa 0,0 l/m 6,1 km/h (2 Bft) SO 135 12,7 C 19,0 C
19.10.2012 13:36 19,3 C 67 % 1014,8 hPa 0,0 l/m 3,6 km/h (1 Bft) S-SO 157 13,0 C 19,3 C
19.10.2012 13:41 19,5 C 66 % 1014,7 hPa 0,0 l/m 2,2 km/h (1 Bft) SO 135 13,0 C 19,5 C
19.10.2012 13:46 19,6 C 65 % 1014,8 hPa 0,0 l/m 3,2 km/h (1 Bft) SO 135 12,8 C 19,6 C
19.10.2012 13:51 19,9 C 65 % 1014,7 hPa 0,0 l/m 0,0 km/h (0 Bft) S-SO 157 13,1 C 19,9 C
19.10.2012 13:56 20,2 C 65 % 1014,7 hPa 0,0 l/m 4,0 km/h (1 Bft) S-SO 157 13,4 C 20,2 C
19.10.2012 14:01 20,3 C 63 % 1014,6 hPa 0,0 l/m 2,2 km/h (1 Bft) O-SO 112 13,0 C 20,3 C
19.10.2012 14:06 20,4 C 64 % 1014,6 hPa 0,0 l/m 8,3 km/h (2 Bft) SO 135 13,4 C 20,4 C
19.10.2012 14:11 20,6 C 63 % 1014,6 hPa 0,0 l/m 2,2 km/h (1 Bft) SO 135 13,3 C 20,6 C
19.10.2012 14:16 20,8 C 63 % 1014,8 hPa 0,0 l/m 2,5 km/h (1 Bft) S-SO 157 13,5 C 20,8 C
19.10.2012 14:21 20,9 C 62 % 1014,7 hPa 0,0 l/m 0,0 km/h (0 Bft) SO 135 13,3 C 20,9 C
19.10.2012 14:26 21,0 C 62 % 1014,6 hPa 0,0 l/m 6,8 km/h (2 Bft) SO 135 13,4 C 21,0 C
19.10.2012 14:31 21,1 C 61 % 1014,6 hPa 0,0 l/m 3,2 km/h (1 Bft) SO 135 13,3 C 21,1 C
19.10.2012 14:36 21,1 C 61 % 1014,6 hPa 0,0 l/m 3,6 km/h (1 Bft) O 90 13,3 C 21,1 C
19.10.2012 14:41 21,1 C 60 % 1014,5 hPa 0,0 l/m 4,0 km/h (1 Bft) SO 135 13,0 C 21,1 C
19.10.2012 14:46 21,1 C 61 % 1014,4 hPa 0,0 l/m 5,4 km/h (1 Bft) O 90 13,3 C 21,1 C
19.10.2012 14:51 21,1 C 61 % 1014,3 hPa 0,0 l/m 5,8 km/h (2 Bft) S-SO 157 13,3 C 21,1 C
19.10.2012 14:56 21,1 C 61 % 1014,2 hPa 0,0 l/m 2,2 km/h (1 Bft) O-SO 112 13,3 C 21,1 C
19.10.2012 15:01 21,1 C 61 % 1014,2 hPa 0,0 l/m 0,0 km/h (0 Bft) SO 135 13,3 C 21,1 C
19.10.2012 15:06 21,2 C 60 % 1014,1 hPa 0,0 l/m 5,4 km/h (1 Bft) SO 135 13,1 C 21,2 C
19.10.2012 15:11 21,2 C 60 % 1014,1 hPa 0,0 l/m 5,4 km/h (1 Bft) SO 135 13,1 C 21,2 C
19.10.2012 15:16 21,3 C 60 % 1014,0 hPa 0,0 l/m 5,8 km/h (2 Bft) SO 135 13,2 C 21,3 C
19.10.2012 15:21 21,3 C 60 % 1014,1 hPa 0,0 l/m 2,5 km/h (1 Bft) O 90 13,2 C 21,3 C
19.10.2012 15:26 21,3 C 60 % 1014,1 hPa 0,0 l/m 8,3 km/h (2 Bft) O 90 13,2 C 21,3 C
19.10.2012 15:31 21,3 C 60 % 1014,1 hPa 0,0 l/m 2,9 km/h (1 Bft) SO 135 13,2 C 21,3 C
19.10.2012 15:36 21,4 C 60 % 1014,2 hPa 0,0 l/m 5,0 km/h (1 Bft) SO 135 13,3 C 21,4 C
19.10.2012 15:41 21,4 C 59 % 1014,1 hPa 0,0 l/m 4,3 km/h (1 Bft) O-SO 112 13,0 C 21,4 C
19.10.2012 15:46 21,4 C 59 % 1014,1 hPa 0,0 l/m 4,7 km/h (1 Bft) SO 135 13,0 C 21,4 C
19.10.2012 15:51 21,4 C 60 % 1014,2 hPa 0,0 l/m 7,6 km/h (2 Bft) S-SO 157 13,3 C 21,4 C
19.10.2012 15:56 21,4 C 60 % 1013,9 hPa 0,0 l/m 7,2 km/h (2 Bft) SO 135 13,3 C 21,4 C
19.10.2012 16:01 21,5 C 60 % 1014,1 hPa 0,0 l/m 2,5 km/h (1 Bft) SO 135 13,4 C 21,5 C
19.10.2012 16:06 21,5 C 60 % 1013,9 hPa 0,0 l/m 6,5 km/h (2 Bft) SO 135 13,4 C 21,5 C
19.10.2012 16:11 21,6 C 61 % 1014,0 hPa 0,0 l/m 4,0 km/h (1 Bft) SO 135 13,7 C 21,6 C
19.10.2012 16:16 21,6 C 61 % 1014,0 hPa 0,0 l/m 3,6 km/h (1 Bft) SO 135 13,7 C 21,6 C
19.10.2012 16:21 21,4 C 61 % 1013,9 hPa 0,0 l/m 5,8 km/h (2 Bft) SO 135 13,6 C 21,4 C
19.10.2012 16:26 21,3 C 62 % 1014,0 hPa 0,0 l/m 0,0 km/h (0 Bft) SO 135 13,7 C 21,3 C
19.10.2012 16:31 21,3 C 62 % 1013,9 hPa 0,0 l/m 4,3 km/h (1 Bft) O-SO 112 13,7 C 21,3 C
19.10.2012 16:36 21,2 C 63 % 1013,9 hPa 0,0 l/m 8,6 km/h (2 Bft) O-SO 112 13,9 C 21,2 C
19.10.2012 16:41 20,9 C 64 % 1013,9 hPa 0,0 l/m 7,2 km/h (2 Bft) S-SO 157 13,8 C 20,9 C
19.10.2012 16:46 20,9 C 64 % 1013,8 hPa 0,0 l/m 5,0 km/h (1 Bft) S-SO 157 13,8 C 20,9 C
19.10.2012 16:51 20,8 C 65 % 1013,8 hPa 0,0 l/m 4,3 km/h (1 Bft) SO 135 14,0 C 20,8 C
19.10.2012 16:56 20,6 C 65 % 1013,8 hPa 0,0 l/m 4,0 km/h (1 Bft) S-SO 157 13,8 C 20,6 C
19.10.2012 17:01 20,5 C 65 % 1013,9 hPa 0,0 l/m 3,6 km/h (1 Bft) O-SO 112 13,7 C 20,5 C
19.10.2012 17:06 20,4 C 65 % 1013,7 hPa 0,0 l/m 4,7 km/h (1 Bft) SO 135 13,6 C 20,4 C
19.10.2012 17:11 20,2 C 66 % 1013,8 hPa 0,0 l/m 9,0 km/h (2 Bft) S-SO 157 13,6 C 20,2 C
19.10.2012 17:16 19,9 C 66 % 1013,7 hPa 0,0 l/m 5,0 km/h (1 Bft) SO 135 13,4 C 19,9 C
19.10.2012 17:21 19,8 C 67 % 1013,8 hPa 0,0 l/m 2,2 km/h (1 Bft) O-SO 112 13,5 C 19,8 C
19.10.2012 17:26 19,4 C 68 % 1013,8 hPa 0,0 l/m 3,2 km/h (1 Bft) SO 135 13,3 C 19,4 C
19.10.2012 17:31 19,2 C 68 % 1013,9 hPa 0,0 l/m 2,2 km/h (1 Bft) O-SO 112 13,1 C 19,2 C
19.10.2012 17:36 19,0 C 68 % 1013,9 hPa 0,0 l/m 2,9 km/h (1 Bft) SO 135 13,0 C 19,0 C
19.10.2012 17:41 18,9 C 68 % 1013,9 hPa 0,0 l/m 0,0 km/h (0 Bft) O-SO 112 12,9 C 18,9 C
19.10.2012 17:46 18,8 C 68 % 1014,0 hPa 0,0 l/m 1,4 km/h (1 Bft) SO 135 12,8 C 18,8 C
19.10.2012 17:51 18,6 C 68 % 1014,1 hPa 0,0 l/m 2,5 km/h (1 Bft) SO 135 12,6 C 18,6 C
19.10.2012 17:56 18,4 C 68 % 1014,2 hPa 0,0 l/m 5,8 km/h (2 Bft) S-SO 157 12,4 C 18,4 C
19.10.2012 18:01 18,3 C 68 % 1014,2 hPa 0,0 l/m 0,0 km/h (0 Bft) SO 135 12,3 C 18,3 C
19.10.2012 18:06 18,1 C 69 % 1014,2 hPa 0,0 l/m 3,6 km/h (1 Bft) S-SO 157 12,3 C 18,1 C
19.10.2012 18:11 17,8 C 69 % 1014,4 hPa 0,0 l/m 2,2 km/h (1 Bft) S-SO 157 12,0 C 17,8 C
19.10.2012 18:16 17,6 C 70 % 1014,5 hPa 0,0 l/m 0,0 km/h (0 Bft) S-SO 157 12,1 C 17,6 C
19.10.2012 18:21 17,4 C 70 % 1014,3 hPa 0,0 l/m 0,0 km/h (0 Bft) S-SO 157 11,9 C 17,4 C
19.10.2012 18:26 17,2 C 71 % 1014,4 hPa 0,0 l/m 1,1 km/h (1 Bft) S-SO 157 11,9 C 17,2 C
19.10.2012 18:31 16,9 C 71 % 1014,5 hPa 0,0 l/m 2,5 km/h (1 Bft) S-SO 157 11,6 C 16,9 C
19.10.2012 18:36 16,7 C 71 % 1014,6 hPa 0,0 l/m 0,0 km/h (0 Bft) S-SO 157 11,4 C 16,7 C
19.10.2012 18:41 16,4 C 72 % 1014,6 hPa 0,0 l/m 0,0 km/h (0 Bft) S-SO 157 11,3 C 16,4 C
19.10.2012 18:46 16,2 C 73 % 1014,6 hPa 0,0 l/m 0,0 km/h (0 Bft) S-SO 157 11,4 C 16,2 C
19.10.2012 18:51 16,1 C 74 % 1014,6 hPa 0,0 l/m 5,0 km/h (1 Bft) O-SO 112 11,5 C 16,1 C
19.10.2012 18:56 15,9 C 76 % 1014,7 hPa 0,0 l/m 2,5 km/h (1 Bft) O-SO 112 11,7 C 15,9 C
19.10.2012 19:01 15,8 C 76 % 1014,7 hPa 0,0 l/m 0,0 km/h (0 Bft) O-SO 112 11,6 C 15,8 C
19.10.2012 19:06 15,6 C 76 % 1014,7 hPa 0,0 l/m 0,0 km/h (0 Bft) O-SO 112 11,4 C 15,6 C
19.10.2012 19:11 15,4 C 76 % 1014,5 hPa 0,0 l/m 0,0 km/h (0 Bft) O-SO 112 11,2 C 15,4 C
19.10.2012 19:16 15,2 C 77 % 1014,6 hPa 0,0 l/m 2,2 km/h (1 Bft) SO 135 11,2 C 15,2 C
19.10.2012 19:21 14,9 C 77 % 1014,7 hPa 0,0 l/m 0,0 km/h (0 Bft) SO 135 10,9 C 14,9 C
19.10.2012 19:26 14,9 C 77 % 1014,7 hPa 0,0 l/m 0,0 km/h (0 Bft) SO 135 10,9 C 14,9 C
19.10.2012 19:31 14,9 C 78 % 1014,8 hPa 0,0 l/m 0,0 km/h (0 Bft) SO 135 11,1 C 14,9 C
19.10.2012 19:36 14,8 C 78 % 1014,8 hPa 0,0 l/m 0,0 km/h (0 Bft) SO 135 11,0 C 14,8 C
19.10.2012 19:41 14,6 C 78 % 1014,8 hPa 0,0 l/m 0,0 km/h (0 Bft) SO 135 10,8 C 14,6 C
19.10.2012 19:46 14,4 C 79 % 1014,8 hPa 0,0 l/m 1,8 km/h (1 Bft) SO 135 10,8 C 14,4 C
19.10.2012 19:51 14,3 C 79 % 1014,8 hPa 0,0 l/m 0,0 km/h (0 Bft) O-SO 112 10,7 C 14,3 C
19.10.2012 19:56 14,2 C 80 % 1014,8 hPa 0,0 l/m 0,0 km/h (0 Bft) O-SO 112 10,8 C 14,2 C
19.10.2012 20:01 14,1 C 80 % 1014,9 hPa 0,0 l/m 0,0 km/h (0 Bft) O-SO 112 10,7 C 14,1 C
19.10.2012 20:06 14,1 C 81 % 1014,9 hPa 0,0 l/m 0,0 km/h (0 Bft) O-SO 112 10,9 C 14,1 C
19.10.2012 20:11 13,9 C 81 % 1014,9 hPa 0,0 l/m 0,0 km/h (0 Bft) O-SO 112 10,7 C 13,9 C
19.10.2012 20:16 13,9 C 81 % 1014,9 hPa 0,0 l/m 1,1 km/h (1 Bft) O-SO 112 10,7 C 13,9 C
19.10.2012 20:21 13,8 C 81 % 1014,9 hPa 0,0 l/m 0,0 km/h (0 Bft) O-SO 112 10,6 C 13,8 C
19.10.2012 20:26 13,8 C 82 % 1014,9 hPa 0,0 l/m 2,2 km/h (1 Bft) SO 135 10,8 C 13,8 C
19.10.2012 20:31 13,8 C 82 % 1014,9 hPa 0,0 l/m 1,4 km/h (1 Bft) SO 135 10,8 C 13,8 C
19.10.2012 20:36 13,7 C 82 % 1015,0 hPa 0,0 l/m 3,2 km/h (1 Bft) O-SO 112 10,7 C 13,7 C
19.10.2012 20:41 13,7 C 83 % 1015,0 hPa 0,0 l/m 1,1 km/h (1 Bft) SO 135 10,9 C 13,7 C
19.10.2012 20:46 13,6 C 83 % 1015,0 hPa 0,0 l/m 1,8 km/h (1 Bft) SO 135 10,8 C 13,6 C
19.10.2012 20:51 13,6 C 83 % 1015,1 hPa 0,0 l/m 2,2 km/h (1 Bft) SO 135 10,8 C 13,6 C
19.10.2012 20:56 13,6 C 83 % 1015,1 hPa 0,0 l/m 2,5 km/h (1 Bft) O-SO 112 10,8 C 13,6 C
19.10.2012 21:01 13,5 C 83 % 1015,2 hPa 0,0 l/m 2,5 km/h (1 Bft) SO 135 10,7 C 13,5 C
19.10.2012 21:06 13,5 C 83 % 1015,3 hPa 0,0 l/m 0,0 km/h (0 Bft) O-SO 112 10,7 C 13,5 C
19.10.2012 21:11 13,4 C 83 % 1015,3 hPa 0,0 l/m 0,0 km/h (0 Bft) O-SO 112 10,6 C 13,4 C
19.10.2012 21:16 13,4 C 83 % 1015,3 hPa 0,0 l/m 0,0 km/h (0 Bft) O-SO 112 10,6 C 13,4 C
19.10.2012 21:21 13,3 C 83 % 1015,2 hPa 0,0 l/m 3,6 km/h (1 Bft) O-SO 112 10,5 C 13,3 C
19.10.2012 21:26 13,3 C 84 % 1015,2 hPa 0,0 l/m 3,6 km/h (1 Bft) O-SO 112 10,7 C 13,3 C
19.10.2012 21:31 13,3 C 84 % 1015,3 hPa 0,0 l/m 1,4 km/h (1 Bft) O-SO 112 10,7 C 13,3 C
19.10.2012 21:36 13,3 C 84 % 1015,3 hPa 0,0 l/m 0,0 km/h (0 Bft) O-SO 112 10,7 C 13,3 C
19.10.2012 21:41 13,3 C 84 % 1015,3 hPa 0,0 l/m 0,0 km/h (0 Bft) O-SO 112 10,7 C 13,3 C
19.10.2012 21:46 13,3 C 84 % 1015,3 hPa 0,0 l/m 2,5 km/h (1 Bft) O-SO 112 10,7 C 13,3 C
19.10.2012 21:51 13,2 C 84 % 1015,5 hPa 0,0 l/m 0,0 km/h (0 Bft) O-SO 112 10,6 C 13,2 C
19.10.2012 21:56 13,1 C 84 % 1015,6 hPa 0,0 l/m 2,5 km/h (1 Bft) O-SO 112 10,5 C 13,1 C
19.10.2012 22:01 13,0 C 84 % 1015,6 hPa 0,0 l/m 0,0 km/h (0 Bft) O-SO 112 10,4 C 13,0 C
19.10.2012 22:06 12,9 C 85 % 1015,5 hPa 0,0 l/m 2,5 km/h (1 Bft) O-SO 112 10,4 C 12,9 C
19.10.2012 22:11 12,9 C 85 % 1015,4 hPa 0,0 l/m 2,9 km/h (1 Bft) O-SO 112 10,4 C 12,9 C
19.10.2012 22:16 12,9 C 85 % 1015,6 hPa 0,0 l/m 0,0 km/h (0 Bft) O-SO 112 10,4 C 12,9 C
19.10.2012 22:21 12,8 C 85 % 1015,5 hPa 0,0 l/m 0,0 km/h (0 Bft) O-SO 112 10,3 C 12,8 C
19.10.2012 22:26 12,6 C 85 % 1015,4 hPa 0,0 l/m 0,0 km/h (0 Bft) O-SO 112 10,1 C 12,6 C
19.10.2012 22:31 12,6 C 85 % 1015,5 hPa 0,0 l/m 0,0 km/h (0 Bft) O-SO 112 10,1 C 12,6 C
19.10.2012 22:36 12,5 C 85 % 1015,4 hPa 0,0 l/m 0,0 km/h (0 Bft) SO 135 10,0 C 12,5 C
19.10.2012 22:41 12,5 C 85 % 1015,3 hPa 0,0 l/m 0,0 km/h (0 Bft) SO 135 10,0 C 12,5 C
19.10.2012 22:46 12,4 C 86 % 1015,3 hPa 0,0 l/m 1,1 km/h (1 Bft) SO 135 10,1 C 12,4 C
19.10.2012 22:51 12,4 C 86 % 1015,3 hPa 0,0 l/m 2,2 km/h (1 Bft) SO 135 10,1 C 12,4 C
19.10.2012 22:56 12,3 C 86 % 1015,3 hPa 0,0 l/m 0,0 km/h (0 Bft) SO 135 10,0 C 12,3 C
19.10.2012 23:01 12,3 C 87 % 1015,3 hPa 0,0 l/m 0,0 km/h (0 Bft) SO 135 10,2 C 12,3 C
19.10.2012 23:06 12,2 C 87 % 1015,4 hPa 0,0 l/m 0,0 km/h (0 Bft) SO 135 10,1 C 12,2 C
19.10.2012 23:11 12,2 C 87 % 1015,5 hPa 0,0 l/m 0,0 km/h (0 Bft) SO 135 10,1 C 12,2 C
19.10.2012 23:16 12,1 C 87 % 1015,4 hPa 0,0 l/m 0,0 km/h (0 Bft) SO 135 10,0 C 12,1 C
19.10.2012 23:21 12,1 C 87 % 1015,3 hPa 0,0 l/m 2,2 km/h (1 Bft) SO 135 10,0 C 12,1 C
19.10.2012 23:26 12,1 C 87 % 1015,4 hPa 0,0 l/m 2,5 km/h (1 Bft) O-SO 112 10,0 C 12,1 C
19.10.2012 23:31 12,0 C 87 % 1015,3 hPa 0,0 l/m 2,5 km/h (1 Bft) SO 135 9,9 C 12,0 C
19.10.2012 23:36 11,9 C 88 % 1015,2 hPa 0,0 l/m 1,8 km/h (1 Bft) SO 135 10,0 C 11,9 C
19.10.2012 23:41 11,9 C 88 % 1015,3 hPa 0,0 l/m 3,6 km/h (1 Bft) O-SO 112 10,0 C 11,9 C
19.10.2012 23:46 11,9 C 88 % 1015,4 hPa 0,0 l/m 2,9 km/h (1 Bft) O-SO 112 10,0 C 11,9 C
19.10.2012 23:51 11,8 C 88 % 1015,3 hPa 0,0 l/m 1,1 km/h (1 Bft) SO 135 9,9 C 11,8 C
19.10.2012 23:56 11,8 C 88 % 1015,4 hPa 0,0 l/m 1,4 km/h (1 Bft) SO 135 9,9 C 11,8 C
_ Min-Zeit 05:16 15:41 17:06 - 00:11 - - 05:16 07:36
Minimum _ 8,2 C 59 % 1013,7 hPa - 0,0 km/h (0 Bft) - - 6,3 C 7,5 C
_ Max-Zeit 16:11 05:31 10:16 00:01 13:01 - - 16:51 16:11
Maximum _ 21,6 C 89 % 1015,7 hPa 0,0 l/m 15,8 km/h
O (3 Bft)
- - 14,0 C 21,6 C
Durchschnitt _ 13,5 C 79 % 1014,9 hPa #0,0 l/m 2,7 km/h (1 Bft) SO - 9,8 C 13,5 C
(c) by David Heller